Time;durP1;ratioP1;P1;durP2;ratioP2;P2;SDS_P1;SDS_P2;PMS_P1;PMS_P2;Temp;Humidity;BMP_temperature;BMP_pressure;BME280_temperature;BME280_humidity;BME280_pressure;Samples;Min_cycle;Max_cycle;Signal;HPM_P1;HPM_P2
2021/09/18 00:17:27;;;;;;;3.35;2.60;;;;;;;;;;4504528;28;20157;-68
2021/09/18 00:19:53;;;;;;;3.40;2.15;;;;;;;;;;4147455;34;20144;-69
2021/09/18 00:22:19;;;;;;;4.53;2.50;;;;;;;;;;4149731;34;20126;-68
2021/09/18 00:24:44;;;;;;;3.03;2.53;;;;;;;;;;4150630;34;20137;-68
2021/09/18 00:27:10;;;;;;;2.20;2.00;;;;;;;;;;4150271;34;20122;-69
2021/09/18 00:29:36;;;;;;;2.35;2.15;;;;;;;;;;4150475;34;20134;-68
2021/09/18 00:32:03;;;;;;;2.10;1.90;;;;;;;;;;4150497;34;20504;-68
2021/09/18 00:34:29;;;;;;;2.72;2.00;;;;;;;;;;4150461;34;20087;-68
2021/09/18 00:36:54;;;;;;;3.42;2.12;;;;;;;;;;4150199;34;20595;-68
2021/09/18 00:39:20;;;;;;;2.47;2.28;;;;;;;;;;4150270;34;20219;-68
2021/09/18 00:41:46;;;;;;;3.17;2.05;;;;;;;;;;4149393;34;20229;-69
2021/09/18 00:44:19;;;;;;;2.87;2.25;;;;;;;;;;4148668;34;20138;-69
2021/09/18 00:46:52;;;;;;;4.87;2.37;;;;;;;;;;4150388;34;20180;-68
2021/09/18 00:49:19;;;;;;;2.70;2.10;;;;;;;;;;4150342;34;20139;-68
2021/09/18 00:51:45;;;;;;;5.15;2.22;;;;;;;;;;4148837;34;20227;-68
2021/09/18 00:54:11;;;;;;;2.58;2.10;;;;;;;;;;4148816;34;20194;-68
2021/09/18 00:56:37;;;;;;;4.37;2.17;;;;;;;;;;4150005;34;20097;-68
2021/09/18 00:59:03;;;;;;;5.12;2.35;;;;;;;;;;4150196;34;20106;-68
2021/09/18 01:01:29;;;;;;;3.95;2.20;;;;;;;;;;4150049;34;20125;-68
2021/09/18 01:03:55;;;;;;;5.03;2.15;;;;;;;;;;4150151;34;20111;-68
2021/09/18 01:06:21;;;;;;;3.53;2.10;;;;;;;;;;4149738;34;20160;-68
2021/09/18 01:08:54;;;;;;;5.22;2.12;;;;;;;;;;4148447;34;20122;-68
2021/09/18 01:11:20;;;;;;;2.70;2.10;;;;;;;;;;4149793;34;20539;-68
2021/09/18 01:13:46;;;;;;;4.85;1.90;;;;;;;;;;4149815;34;20138;-68
2021/09/18 01:16:11;;;;;;;2.28;1.90;;;;;;;;;;4149793;34;20210;-68
2021/09/18 01:18:37;;;;;;;3.15;2.20;;;;;;;;;;4149570;34;20581;-68
2021/09/18 01:21:03;;;;;;;2.80;2.05;;;;;;;;;;4149720;34;20125;-68
2021/09/18 01:23:29;;;;;;;2.40;2.10;;;;;;;;;;4149983;34;20510;-68
2021/09/18 01:25:55;;;;;;;2.85;1.80;;;;;;;;;;4148542;34;20123;-68
2021/09/18 01:28:22;;;;;;;4.10;1.85;;;;;;;;;;4149576;34;20133;-68
2021/09/18 01:30:48;;;;;;;2.62;2.17;;;;;;;;;;4149783;34;20189;-68
2021/09/18 01:33:14;;;;;;;3.60;2.28;;;;;;;;;;4149658;34;20130;-68
2021/09/18 01:35:40;;;;;;;4.40;2.30;;;;;;;;;;4149658;34;20123;-68
2021/09/18 01:38:06;;;;;;;3.22;2.12;;;;;;;;;;4149560;34;20118;-68
2021/09/18 01:40:34;;;;;;;2.72;2.30;;;;;;;;;;4149677;34;20535;-68
2021/09/18 01:43:01;;;;;;;6.00;2.50;;;;;;;;;;4149715;34;20104;-68
2021/09/18 01:45:27;;;;;;;3.17;2.10;;;;;;;;;;4149485;34;20106;-68
2021/09/18 01:47:56;;;;;;;2.85;1.98;;;;;;;;;;4148026;34;20103;-68
2021/09/18 01:50:38;;;;;;;1.85;1.60;;;;;;;;;;4149525;34;20125;-68
2021/09/18 01:53:05;;;;;;;2.08;1.73;;;;;;;;;;4150976;34;20095;-68
2021/09/18 01:55:31;;;;;;;2.22;1.70;;;;;;;;;;4161343;34;20186;-68
2021/09/18 01:57:57;;;;;;;2.78;1.73;;;;;;;;;;4151514;34;20117;-68
2021/09/18 02:00:23;;;;;;;2.60;1.98;;;;;;;;;;4151724;34;20105;-68
2021/09/18 02:02:50;;;;;;;5.45;1.90;;;;;;;;;;4151292;34;20099;-68
2021/09/18 02:05:17;;;;;;;1.95;1.70;;;;;;;;;;4151600;34;20127;-68
2021/09/18 02:07:43;;;;;;;2.20;2.00;;;;;;;;;;4151495;34;20130;-68
2021/09/18 02:10:12;;;;;;;4.85;2.10;;;;;;;;;;4161232;34;20635;-68
2021/09/18 02:12:38;;;;;;;1.85;1.67;;;;;;;;;;4151305;34;20103;-68
2021/09/18 02:15:05;;;;;;;2.92;1.87;;;;;;;;;;4151423;34;20119;-68
2021/09/18 02:17:31;;;;;;;2.85;1.90;;;;;;;;;;4151209;34;20114;-69
2021/09/18 02:19:56;;;;;;;3.30;1.95;;;;;;;;;;4161116;34;20118;-68
2021/09/18 02:22:22;;;;;;;2.22;1.52;;;;;;;;;;4151319;34;20640;-69
2021/09/18 02:24:48;;;;;;;1.92;1.65;;;;;;;;;;4151362;34;20547;-68
2021/09/18 02:27:14;;;;;;;4.53;2.00;;;;;;;;;;4151275;34;20134;-69
2021/09/18 02:29:40;;;;;;;3.53;1.87;;;;;;;;;;4151321;34;20201;-68
2021/09/18 02:32:06;;;;;;;2.87;1.80;;;;;;;;;;4151253;34;20122;-68
2021/09/18 02:34:32;;;;;;;7.05;2.05;;;;;;;;;;4151187;34;20121;-68
2021/09/18 02:36:58;;;;;;;2.53;1.80;;;;;;;;;;4151072;34;20218;-68
2021/09/18 02:39:24;;;;;;;1.95;1.70;;;;;;;;;;4151058;34;20122;-68
2021/09/18 02:41:50;;;;;;;2.58;1.80;;;;;;;;;;4151429;34;20099;-68
2021/09/18 02:44:16;;;;;;;1.87;1.50;;;;;;;;;;4151081;34;20103;-68
2021/09/18 02:46:42;;;;;;;1.98;1.80;;;;;;;;;;4151070;34;20111;-69
2021/09/18 02:49:08;;;;;;;2.05;1.67;;;;;;;;;;4151044;34;20467;-68
2021/09/18 02:51:33;;;;;;;2.95;2.12;;;;;;;;;;4151144;34;20223;-68
2021/09/18 02:53:59;;;;;;;2.85;2.20;;;;;;;;;;4151210;34;20138;-68
2021/09/18 02:56:25;;;;;;;2.08;1.87;;;;;;;;;;4151296;34;20123;-69
2021/09/18 02:58:51;;;;;;;2.92;2.03;;;;;;;;;;4151174;34;20122;-68
2021/09/18 03:01:17;;;;;;;2.17;1.98;;;;;;;;;;4150881;34;20516;-69
2021/09/18 03:03:43;;;;;;;2.08;1.80;;;;;;;;;;4150332;34;20254;-69
2021/09/18 03:06:09;;;;;;;2.92;1.85;;;;;;;;;;4150993;34;20219;-69
2021/09/18 03:08:35;;;;;;;1.87;1.65;;;;;;;;;;4149454;34;20146;-69
2021/09/18 03:11:01;;;;;;;4.65;2.03;;;;;;;;;;4150980;34;20604;-68
2021/09/18 03:13:27;;;;;;;2.30;2.10;;;;;;;;;;4149582;34;20259;-68
2021/09/18 03:15:53;;;;;;;3.60;2.20;;;;;;;;;;4150789;34;20115;-68
2021/09/18 03:18:19;;;;;;;2.40;2.03;;;;;;;;;;4150756;34;20137;-68
2021/09/18 03:20:45;;;;;;;2.00;1.80;;;;;;;;;;4150826;34;20127;-69
2021/09/18 03:23:11;;;;;;;2.33;2.10;;;;;;;;;;4149303;34;20114;-69
2021/09/18 03:25:37;;;;;;;2.35;2.05;;;;;;;;;;4150728;34;20558;-69
2021/09/18 03:28:03;;;;;;;2.92;2.03;;;;;;;;;;4150669;34;20138;-68
2021/09/18 03:30:28;;;;;;;3.22;2.35;;;;;;;;;;4150728;34;20134;-68
2021/09/18 03:32:54;;;;;;;2.50;2.20;;;;;;;;;;4149482;34;20100;-69
2021/09/18 03:35:20;;;;;;;3.72;2.40;;;;;;;;;;4150760;34;20131;-69
2021/09/18 03:37:46;;;;;;;5.07;2.60;;;;;;;;;;4150737;34;20270;-68
2021/09/18 03:40:12;;;;;;;3.05;2.67;;;;;;;;;;4150854;34;20126;-69
2021/09/18 03:42:38;;;;;;;3.28;2.92;;;;;;;;;;4150802;34;20127;-69
2021/09/18 03:45:04;;;;;;;4.97;2.58;;;;;;;;;;4150493;34;20149;-69
2021/09/18 03:47:30;;;;;;;2.83;2.30;;;;;;;;;;4150670;34;20123;-70
2021/09/18 03:49:56;;;;;;;2.53;2.05;;;;;;;;;;4150602;34;20110;-71
2021/09/18 03:52:25;;;;;;;3.25;1.70;;;;;;;;;;4150440;34;20143;-70
2021/09/18 03:54:51;;;;;;;3.95;1.80;;;;;;;;;;4150693;34;20463;-70
2021/09/18 03:57:17;;;;;;;2.25;2.05;;;;;;;;;;4150395;34;20135;-70
2021/09/18 03:59:44;;;;;;;2.33;1.70;;;;;;;;;;4150450;34;20127;-70
2021/09/18 04:02:10;;;;;;;1.95;1.73;;;;;;;;;;4150793;34;20112;-68
2021/09/18 04:04:36;;;;;;;2.30;2.05;;;;;;;;;;4150439;34;20153;-68
2021/09/18 04:07:02;;;;;;;3.37;2.25;;;;;;;;;;4150706;34;20115;-69
2021/09/18 04:09:28;;;;;;;2.80;1.90;;;;;;;;;;4150421;34;20112;-69
2021/09/18 04:11:54;;;;;;;3.37;2.00;;;;;;;;;;4150758;34;20141;-69
2021/09/18 04:14:20;;;;;;;3.53;1.80;;;;;;;;;;4150401;34;20496;-69
2021/09/18 04:16:46;;;;;;;2.00;1.80;;;;;;;;;;4149097;34;20460;-69
2021/09/18 04:19:11;;;;;;;8.57;2.17;;;;;;;;;;4150211;34;20119;-69
2021/09/18 04:21:37;;;;;;;2.17;1.70;;;;;;;;;;4150619;34;20795;-68
2021/09/18 04:24:04;;;;;;;2.05;1.85;;;;;;;;;;4149026;34;20107;-70
2021/09/18 04:26:31;;;;;;;1.65;1.55;;;;;;;;;;4148780;34;20151;-69
2021/09/18 04:28:57;;;;;;;1.83;1.58;;;;;;;;;;4149049;34;20208;-69
2021/09/18 04:31:23;;;;;;;1.73;1.62;;;;;;;;;;4137806;34;20142;-69
2021/09/18 04:33:49;;;;;;;2.30;1.52;;;;;;;;;;4150489;34;20126;-69
2021/09/18 04:36:15;;;;;;;3.37;2.47;;;;;;;;;;4150216;34;20425;-69
2021/09/18 04:38:41;;;;;;;1.83;1.73;;;;;;;;;;4150172;34;20138;-69
2021/09/18 04:41:07;;;;;;;4.45;1.90;;;;;;;;;;4150005;34;20105;-69
2021/09/18 04:43:33;;;;;;;2.78;1.73;;;;;;;;;;4148708;34;20269;-69
2021/09/18 04:45:59;;;;;;;1.80;1.70;;;;;;;;;;4150029;34;20570;-69
2021/09/18 04:48:25;;;;;;;1.60;1.40;;;;;;;;;;4150083;34;20500;-69
2021/09/18 04:50:51;;;;;;;2.35;1.70;;;;;;;;;;4149976;34;20123;-69
2021/09/18 04:53:17;;;;;;;3.30;1.60;;;;;;;;;;4150034;34;20531;-71
2021/09/18 04:55:43;;;;;;;2.12;1.60;;;;;;;;;;4150105;34;20145;-71
2021/09/18 04:58:09;;;;;;;2.78;1.60;;;;;;;;;;4147645;34;20190;-72
2021/09/18 05:00:35;;;;;;;2.12;1.90;;;;;;;;;;4149896;34;20122;-72
2021/09/18 05:03:00;;;;;;;3.37;1.62;;;;;;;;;;4148840;34;20171;-70
2021/09/18 05:05:26;;;;;;;3.33;1.70;;;;;;;;;;4150071;34;20500;-69
2021/09/18 05:07:52;;;;;;;2.33;1.75;;;;;;;;;;4149909;34;20512;-69
2021/09/18 05:10:18;;;;;;;1.70;1.60;;;;;;;;;;4149137;34;20119;-69
2021/09/18 05:12:44;;;;;;;1.55;1.45;;;;;;;;;;4147385;34;20114;-69
2021/09/18 05:15:10;;;;;;;1.10;1.10;;;;;;;;;;4148162;34;20535;-71
2021/09/18 05:17:36;;;;;;;1.90;1.40;;;;;;;;;;4147246;34;20155;-68
2021/09/18 05:20:02;;;;;;;3.30;1.30;;;;;;;;;;4147396;34;20151;-68
2021/09/18 05:22:28;;;;;;;1.77;1.42;;;;;;;;;;4148004;34;20503;-70
2021/09/18 05:24:54;;;;;;;2.80;1.40;;;;;;;;;;4147803;34;20103;-70
2021/09/18 05:27:20;;;;;;;2.15;1.40;;;;;;;;;;4147362;34;20119;-69
2021/09/18 05:29:46;;;;;;;1.83;1.50;;;;;;;;;;4148380;34;20513;-68
2021/09/18 05:32:12;;;;;;;4.80;1.30;;;;;;;;;;4149629;34;20107;-70
2021/09/18 05:34:38;;;;;;;1.70;1.60;;;;;;;;;;4149755;34;20145;-68
2021/09/18 05:37:04;;;;;;;1.48;1.37;;;;;;;;;;4148098;34;20528;-70
2021/09/18 05:39:30;;;;;;;1.40;1.30;;;;;;;;;;4149353;34;20107;-66
2021/09/18 05:41:56;;;;;;;2.08;1.60;;;;;;;;;;4148108;34;20201;-65
2021/09/18 05:44:22;;;;;;;2.55;1.70;;;;;;;;;;4149190;34;20734;-68
2021/09/18 05:46:48;;;;;;;1.60;1.50;;;;;;;;;;4149482;34;20139;-67
2021/09/18 05:49:14;;;;;;;1.52;1.42;;;;;;;;;;4149445;34;20131;-67
2021/09/18 05:51:39;;;;;;;1.45;1.35;;;;;;;;;;4170621;34;20111;-66
2021/09/18 05:54:05;;;;;;;1.73;1.60;;;;;;;;;;4170560;34;20126;-66
2021/09/18 05:56:31;;;;;;;1.58;1.48;;;;;;;;;;4149326;34;20463;-69
2021/09/18 05:58:57;;;;;;;1.80;1.60;;;;;;;;;;4149443;34;20181;-69
2021/09/18 06:01:23;;;;;;;1.95;1.75;;;;;;;;;;4148954;34;20129;-69
2021/09/18 06:03:49;;;;;;;1.42;1.33;;;;;;;;;;4149351;34;20470;-69
2021/09/18 06:06:15;;;;;;;2.47;1.33;;;;;;;;;;4149130;34;20186;-69
2021/09/18 06:08:41;;;;;;;3.05;1.50;;;;;;;;;;4149593;34;20504;-69
2021/09/18 06:11:07;;;;;;;1.77;1.50;;;;;;;;;;4148924;34;20312;-69
2021/09/18 06:13:33;;;;;;;1.70;1.60;;;;;;;;;;4149379;34;20211;-68
2021/09/18 06:15:59;;;;;;;1.75;1.65;;;;;;;;;;4149279;34;20131;-69
2021/09/18 06:18:25;;;;;;;2.25;1.40;;;;;;;;;;4170398;34;20107;-69
2021/09/18 06:20:51;;;;;;;1.75;1.65;;;;;;;;;;4149182;34;20110;-69
2021/09/18 06:23:17;;;;;;;3.53;1.55;;;;;;;;;;4149096;34;20107;-69
2021/09/18 06:25:43;;;;;;;2.47;1.58;;;;;;;;;;4149124;34;20433;-70
2021/09/18 06:28:09;;;;;;;2.25;1.75;;;;;;;;;;4149094;34;20095;-70
2021/09/18 06:30:35;;;;;;;2.40;1.73;;;;;;;;;;4137143;34;20107;-70
2021/09/18 06:33:01;;;;;;;1.73;1.62;;;;;;;;;;4149391;34;20466;-70
2021/09/18 06:35:27;;;;;;;1.70;1.60;;;;;;;;;;4148987;34;20574;-70
2021/09/18 06:37:53;;;;;;;1.50;1.40;;;;;;;;;;4149338;34;20235;-71
2021/09/18 06:40:19;;;;;;;2.53;1.60;;;;;;;;;;4150692;34;20548;-70
2021/09/18 06:42:45;;;;;;;2.17;1.90;;;;;;;;;;4151242;34;20134;-71
2021/09/18 06:45:11;;;;;;;1.73;1.50;;;;;;;;;;4151370;34;20211;-70
2021/09/18 06:47:37;;;;;;;2.72;1.60;;;;;;;;;;4127653;34;20569;-70
2021/09/18 06:50:04;;;;;;;2.15;1.83;;;;;;;;;;4149708;34;20223;-71
2021/09/18 06:52:30;;;;;;;1.77;1.67;;;;;;;;;;4151040;34;20134;-69
2021/09/18 06:54:56;;;;;;;2.00;1.58;;;;;;;;;;4151150;34;20130;-69
2021/09/18 06:57:22;;;;;;;1.90;1.70;;;;;;;;;;4150692;34;20471;-69
2021/09/18 06:59:48;;;;;;;4.10;2.30;;;;;;;;;;4150683;34;20103;-69
2021/09/18 07:02:14;;;;;;;3.17;2.28;;;;;;;;;;4149499;34;20527;-69
2021/09/18 07:04:40;;;;;;;3.10;2.25;;;;;;;;;;4150609;34;20658;-69
2021/09/18 07:07:06;;;;;;;1.83;1.73;;;;;;;;;;4150859;34;20217;-69
2021/09/18 07:09:32;;;;;;;2.53;1.70;;;;;;;;;;4149988;34;20210;-69
2021/09/18 07:11:58;;;;;;;2.12;1.70;;;;;;;;;;4151557;34;20528;-70
2021/09/18 07:14:24;;;;;;;1.87;1.42;;;;;;;;;;4151027;34;20198;-70
2021/09/18 07:16:49;;;;;;;1.60;1.50;;;;;;;;;;4150975;34;20110;-70
2021/09/18 07:19:15;;;;;;;3.28;1.55;;;;;;;;;;4151055;34;20115;-69
2021/09/18 07:21:41;;;;;;;2.22;1.87;;;;;;;;;;4151160;34;20225;-69
2021/09/18 07:24:07;;;;;;;1.80;1.67;;;;;;;;;;4149429;34;20142;-68
2021/09/18 07:26:34;;;;;;;1.67;1.58;;;;;;;;;;4151312;34;20159;-70
2021/09/18 07:29:00;;;;;;;1.60;1.50;;;;;;;;;;4149587;34;20468;-71
2021/09/18 07:31:26;;;;;;;1.83;1.62;;;;;;;;;;4150109;34;20247;-71
2021/09/18 07:33:55;;;;;;;1.40;1.30;;;;;;;;;;4150731;34;20127;-74
2021/09/18 07:36:21;;;;;;;1.50;1.40;;;;;;;;;;4150872;34;20130;-74
2021/09/18 07:38:47;;;;;;;2.17;1.65;;;;;;;;;;4150040;34;20226;-75
2021/09/18 07:41:13;;;;;;;2.97;1.62;;;;;;;;;;4150667;34;20211;-73
2021/09/18 07:43:39;;;;;;;1.50;1.40;;;;;;;;;;4151756;34;20627;-73
2021/09/18 07:46:05;;;;;;;2.00;1.52;;;;;;;;;;4150680;34;20130;-72
2021/09/18 07:48:31;;;;;;;4.43;2.45;;;;;;;;;;4150486;34;20462;-72
2021/09/18 07:50:57;;;;;;;1.30;1.20;;;;;;;;;;4150282;34;20125;-71
2021/09/18 07:53:26;;;;;;;1.40;1.30;;;;;;;;;;4150315;34;20237;-74
2021/09/18 07:55:52;;;;;;;3.55;1.55;;;;;;;;;;4150812;34;20116;-70
2021/09/18 07:58:18;;;;;;;1.60;1.50;;;;;;;;;;4150404;34;20145;-70
2021/09/18 08:00:45;;;;;;;2.92;1.73;;;;;;;;;;4169879;34;20129;-68
2021/09/18 08:03:11;;;;;;;1.60;1.50;;;;;;;;;;4150855;34;20095;-72
2021/09/18 08:05:37;;;;;;;1.85;1.20;;;;;;;;;;4150048;34;20092;-72
2021/09/18 08:08:03;;;;;;;1.60;1.50;;;;;;;;;;4150743;34;20135;-69
2021/09/18 08:10:30;;;;;;;2.97;1.40;;;;;;;;;;4150577;34;20186;-70
2021/09/18 08:12:56;;;;;;;1.95;1.55;;;;;;;;;;4150724;34;20119;-70
2021/09/18 08:15:23;;;;;;;1.52;1.42;;;;;;;;;;4150549;34;20161;-70
2021/09/18 08:17:49;;;;;;;2.10;1.42;;;;;;;;;;4150617;34;20141;-70
2021/09/18 08:20:16;;;;;;;1.70;1.50;;;;;;;;;;4150593;34;20479;-70
2021/09/18 08:22:43;;;;;;;2.05;1.35;;;;;;;;;;4148730;34;20118;-69
2021/09/18 08:25:09;;;;;;;4.95;1.55;;;;;;;;;;4150311;34;20095;-70
2021/09/18 08:27:35;;;;;;;1.67;1.40;;;;;;;;;;4150235;34;20099;-69
2021/09/18 08:30:02;;;;;;;1.83;1.60;;;;;;;;;;4150214;34;20182;-68
2021/09/18 08:32:31;;;;;;;1.95;1.75;;;;;;;;;;4150065;34;20126;-71
2021/09/18 08:34:57;;;;;;;1.77;1.40;;;;;;;;;;4150424;34;20091;-70
2021/09/18 08:37:23;;;;;;;1.95;1.37;;;;;;;;;;4150449;34;20141;-72
2021/09/18 08:39:48;;;;;;;1.55;1.45;;;;;;;;;;4150159;34;20471;-69
2021/09/18 08:42:15;;;;;;;1.95;1.75;;;;;;;;;;4150115;34;20142;-70
2021/09/18 08:44:40;;;;;;;2.72;2.08;;;;;;;;;;4150363;34;20112;-69
2021/09/18 08:47:06;;;;;;;2.42;1.60;;;;;;;;;;4150081;34;20156;-70
2021/09/18 08:49:32;;;;;;;2.85;2.10;;;;;;;;;;4150105;34;20115;-70
2021/09/18 08:52:01;;;;;;;2.35;1.75;;;;;;;;;;4150099;34;20126;-69
2021/09/18 08:54:28;;;;;;;1.52;1.25;;;;;;;;;;4148542;34;20115;-71
2021/09/18 08:56:54;;;;;;;4.12;1.70;;;;;;;;;;4150346;34;20550;-71
2021/09/18 08:59:20;;;;;;;1.30;1.20;;;;;;;;;;4149998;34;20129;-70
2021/09/18 09:02:06;;;;;;;1.87;1.50;;;;;;;;;;4170251;34;20636;-70
2021/09/18 09:04:32;;;;;;;3.17;1.80;;;;;;;;;;4168165;34;20485;-71
2021/09/18 09:07:00;;;;;;;1.60;1.40;;;;;;;;;;4171187;34;20133;-71
2021/09/18 09:09:26;;;;;;;2.12;1.60;;;;;;;;;;4171361;34;20154;-69
2021/09/18 09:11:53;;;;;;;2.03;1.70;;;;;;;;;;4149696;34;20305;-70
2021/09/18 09:14:19;;;;;;;1.60;1.50;;;;;;;;;;4159656;34;20137;-71
2021/09/18 09:16:59;;;;;;;1.70;1.60;;;;;;;;;;4149780;34;20142;-70
2021/09/18 09:19:24;;;;;;;1.80;1.70;;;;;;;;;;4149952;34;20142;-71
2021/09/18 09:21:54;;;;;;;3.25;1.60;;;;;;;;;;4149895;34;20476;-69
2021/09/18 09:24:22;;;;;;;2.58;1.30;;;;;;;;;;4148382;34;20100;-70
2021/09/18 09:27:11;;;;;;;3.30;1.80;;;;;;;;;;4148227;34;20135;-70
2021/09/18 09:29:46;;;;;;;1.52;1.42;;;;;;;;;;4149840;34;20274;-70
2021/09/18 09:32:28;;;;;;;2.15;1.70;;;;;;;;;;4149693;34;20122;-74
2021/09/18 09:34:54;;;;;;;1.60;1.50;;;;;;;;;;4148294;34;20107;-74
2021/09/18 09:37:24;;;;;;;1.87;1.60;;;;;;;;;;4149488;34;20099;-74
2021/09/18 09:39:55;;;;;;;1.67;1.45;;;;;;;;;;4148438;34;20106;-73
2021/09/18 09:42:31;;;;;;;3.20;1.80;;;;;;;;;;4149532;34;20115;-75
2021/09/18 09:45:14;;;;;;;1.50;1.40;;;;;;;;;;4148157;34;20096;-72
2021/09/18 09:47:40;;;;;;;1.77;1.67;;;;;;;;;;4149575;34;20119;-71
2021/09/18 09:50:06;;;;;;;1.52;1.40;;;;;;;;;;4149528;34;20142;-71
2021/09/18 09:52:33;;;;;;;1.30;1.20;;;;;;;;;;4149295;34;20100;-71
2021/09/18 09:55:12;;;;;;;1.73;1.30;;;;;;;;;;4149645;34;20119;-70
2021/09/18 09:57:39;;;;;;;1.52;1.40;;;;;;;;;;4149422;34;20123;-72
2021/09/18 10:00:09;;;;;;;2.08;1.40;;;;;;;;;;4148185;34;20118;-71
2021/09/18 10:02:36;;;;;;;1.52;1.42;;;;;;;;;;4149279;34;20211;-71
2021/09/18 10:05:06;;;;;;;2.33;1.75;;;;;;;;;;4137241;34;20119;-70
2021/09/18 10:07:33;;;;;;;1.52;1.42;;;;;;;;;;4148387;34;20091;-72
2021/09/18 10:09:59;;;;;;;1.60;1.50;;;;;;;;;;4149557;34;20211;-70
2021/09/18 10:12:26;;;;;;;3.03;1.70;;;;;;;;;;4147959;34;20107;-73
2021/09/18 10:14:54;;;;;;;1.87;1.62;;;;;;;;;;4150303;34;20123;-72
2021/09/18 10:17:20;;;;;;;1.80;1.30;;;;;;;;;;4149457;34;20103;-74
2021/09/18 10:25:02;;;;;;;3.47;1.42;;;;;;;;;;4149493;34;21182;-71
2021/09/18 10:27:28;;;;;;;3.58;1.48;;;;;;;;;;4151184;34;20235;-70
2021/09/18 10:29:55;;;;;;;1.40;1.17;;;;;;;;;;4151051;34;20103;-72
2021/09/18 10:32:21;;;;;;;1.30;1.20;;;;;;;;;;4144119;34;20664;-72
2021/09/18 10:34:47;;;;;;;1.30;1.20;;;;;;;;;;4137652;34;20313;-71
2021/09/18 10:37:36;;;;;;;1.30;1.20;;;;;;;;;;4137712;34;20142;-73
2021/09/18 10:40:13;;;;;;;1.30;1.20;;;;;;;;;;4140206;34;20118;-74
2021/09/18 10:42:45;;;;;;;4.03;1.50;;;;;;;;;;4159878;34;20468;-73
2021/09/18 10:45:12;;;;;;;1.42;1.27;;;;;;;;;;4150962;34;20258;-73
2021/09/18 10:47:40;;;;;;;1.98;1.60;;;;;;;;;;4150911;34;20491;-72
2021/09/18 10:50:30;;;;;;;2.15;1.40;;;;;;;;;;4149663;34;20543;-74
2021/09/18 10:53:00;;;;;;;1.58;1.48;;;;;;;;;;4133921;34;20092;-73
2021/09/18 10:55:26;;;;;;;1.95;1.40;;;;;;;;;;4142854;34;20440;-74
2021/09/18 10:57:52;;;;;;;2.08;1.40;;;;;;;;;;4151112;34;20095;-73
2021/09/18 11:00:21;;;;;;;1.60;1.30;;;;;;;;;;4150986;34;20138;-71
2021/09/18 11:02:51;;;;;;;1.70;1.60;;;;;;;;;;4150794;34;20127;-71
2021/09/18 11:05:25;;;;;;;1.10;1.05;;;;;;;;;;4151051;34;20207;-72
2021/09/18 11:07:52;;;;;;;1.20;1.20;;;;;;;;;;4150708;34;20118;-72
2021/09/18 11:10:21;;;;;;;1.70;1.30;;;;;;;;;;4150641;34;20448;-73
2021/09/18 11:13:06;;;;;;;1.48;1.25;;;;;;;;;;4150761;34;20165;-72
2021/09/18 11:15:43;;;;;;;1.10;1.10;;;;;;;;;;4150731;34;20210;-73
2021/09/18 11:18:13;;;;;;;7.37;1.08;;;;;;;;;;4150637;34;20128;-72
2021/09/18 11:20:39;;;;;;;1.35;1.25;;;;;;;;;;4149464;34;20107;-72
2021/09/18 11:23:05;;;;;;;3.10;1.15;;;;;;;;;;4150615;34;20118;-72
2021/09/18 11:25:33;;;;;;;2.03;1.45;;;;;;;;;;4150529;34;20525;-73
2021/09/18 11:28:03;;;;;;;1.87;1.50;;;;;;;;;;4149251;34;20096;-73
2021/09/18 11:30:45;;;;;;;3.12;1.60;;;;;;;;;;4150807;34;20623;-73
2021/09/18 11:33:13;;;;;;;1.80;1.60;;;;;;;;;;4149141;34;20095;-73
2021/09/18 11:35:40;;;;;;;4.12;2.00;;;;;;;;;;4149451;34;20096;-71
2021/09/18 11:38:06;;;;;;;1.98;1.77;;;;;;;;;;4148984;34;20201;-71
2021/09/18 11:40:33;;;;;;;4.35;2.00;;;;;;;;;;4150902;34;20107;-72
2021/09/18 11:43:00;;;;;;;3.72;2.17;;;;;;;;;;4149342;34;20135;-70
2021/09/18 11:45:26;;;;;;;2.80;1.98;;;;;;;;;;4150597;34;20123;-70
2021/09/18 11:47:58;;;;;;;1.95;1.55;;;;;;;;;;4150518;34;20116;-74
2021/09/18 11:50:32;;;;;;;2.72;1.92;;;;;;;;;;4149415;34;20472;-74
2021/09/18 11:53:00;;;;;;;2.12;1.52;;;;;;;;;;4160310;34;20223;-72
2021/09/18 11:55:27;;;;;;;1.35;1.23;;;;;;;;;;4150684;34;20129;-71
2021/09/18 11:58:29;;;;;;;1.55;1.27;;;;;;;;;;4159835;34;20219;-70
2021/09/18 12:00:57;;;;;;;3.37;1.42;;;;;;;;;;4150659;34;20226;-70
2021/09/18 12:03:27;;;;;;;4.12;2.30;;;;;;;;;;4150343;34;20133;-70
2021/09/18 12:05:55;;;;;;;2.72;2.10;;;;;;;;;;4171616;34;20251;-71
2021/09/18 12:08:24;;;;;;;2.08;1.77;;;;;;;;;;4150350;34;20113;-72
2021/09/18 12:10:51;;;;;;;4.00;3.10;;;;;;;;;;4150342;34;20107;-71
2021/09/18 12:13:19;;;;;;;4.55;3.47;;;;;;;;;;4150231;34;20126;-73
2021/09/18 12:15:45;;;;;;;4.50;3.28;;;;;;;;;;4171060;34;20130;-72
2021/09/18 12:18:28;;;;;;;4.30;2.70;;;;;;;;;;4149944;34;20203;-73
2021/09/18 12:20:58;;;;;;;4.28;3.25;;;;;;;;;;4148884;34;20111;-72
2021/09/18 12:23:24;;;;;;;3.47;2.75;;;;;;;;;;4148774;34;20616;-72
2021/09/18 12:25:55;;;;;;;3.12;2.42;;;;;;;;;;4150447;34;20110;-71
2021/09/18 12:28:21;;;;;;;3.92;2.47;;;;;;;;;;4149948;34;20198;-72
2021/09/18 12:30:47;;;;;;;3.25;2.62;;;;;;;;;;4136625;34;20570;-73
2021/09/18 12:33:15;;;;;;;4.87;3.20;;;;;;;;;;4148881;34;20115;-72
2021/09/18 12:35:46;;;;;;;3.45;2.62;;;;;;;;;;4148780;34;20110;-72
2021/09/18 12:38:12;;;;;;;2.95;2.12;;;;;;;;;;4149299;34;20102;-73
2021/09/18 12:40:42;;;;;;;3.37;2.50;;;;;;;;;;4137591;34;20123;-71
2021/09/18 12:43:15;;;;;;;3.60;2.00;;;;;;;;;;4148475;34;20127;-73
2021/09/18 12:45:41;;;;;;;3.17;2.37;;;;;;;;;;4148555;34;20103;-72
2021/09/18 12:48:15;;;;;;;4.10;1.98;;;;;;;;;;4149918;34;20103;-72
2021/09/18 12:50:48;;;;;;;2.80;2.30;;;;;;;;;;4150233;34;20130;-72
2021/09/18 12:53:38;;;;;;;4.05;2.95;;;;;;;;;;4149944;34;20095;-72
2021/09/18 12:56:43;;;;;;;4.12;2.42;;;;;;;;;;4144978;34;20135;-73
2021/09/18 12:59:09;;;;;;;2.42;2.22;;;;;;;;;;4134117;34;20201;-71
2021/09/18 13:01:40;;;;;;;2.85;2.40;;;;;;;;;;4150098;34;20131;-72
2021/09/18 13:04:19;;;;;;;2.25;1.98;;;;;;;;;;4148450;34;20117;-71
2021/09/18 13:07:08;;;;;;;3.35;2.30;;;;;;;;;;4148546;34;20127;-72
2021/09/18 13:09:42;;;;;;;6.45;2.33;;;;;;;;;;4150361;34;20505;-72
2021/09/18 13:12:10;;;;;;;5.10;2.22;;;;;;;;;;4149813;34;20527;-71
2021/09/18 13:14:40;;;;;;;4.25;2.30;;;;;;;;;;4150024;34;20098;-72
2021/09/18 13:17:10;;;;;;;4.75;3.37;;;;;;;;;;4149676;34;20463;-72
2021/09/18 13:19:47;;;;;;;6.30;3.50;;;;;;;;;;4150018;34;20114;-71
2021/09/18 13:22:13;;;;;;;6.90;3.72;;;;;;;;;;4150017;34;20229;-72
2021/09/18 13:24:39;;;;;;;8.13;2.92;;;;;;;;;;4148626;34;20202;-71
2021/09/18 13:27:05;;;;;;;6.43;3.50;;;;;;;;;;4148537;34;20158;-70
2021/09/18 13:29:31;;;;;;;6.12;3.72;;;;;;;;;;4149800;34;20610;-72
2021/09/18 13:31:57;;;;;;;7.43;3.30;;;;;;;;;;4149763;34;20332;-72
2021/09/18 13:34:23;;;;;;;4.68;3.05;;;;;;;;;;4149883;34;20127;-69
2021/09/18 13:36:49;;;;;;;4.80;2.75;;;;;;;;;;4149361;34;20598;-71
2021/09/18 13:39:17;;;;;;;5.97;2.50;;;;;;;;;;4149783;34;20120;-71
2021/09/18 13:41:43;;;;;;;3.70;2.72;;;;;;;;;;4170940;34;20107;-72
2021/09/18 13:44:09;;;;;;;2.90;2.60;;;;;;;;;;4170676;34;20155;-74
2021/09/18 13:46:35;;;;;;;5.45;3.00;;;;;;;;;;4149781;34;20107;-72
2021/09/18 13:49:01;;;;;;;8.40;4.30;;;;;;;;;;4171941;34;20475;-70
2021/09/18 13:51:27;;;;;;;5.47;3.45;;;;;;;;;;4151690;34;20157;-71
2021/09/18 13:53:53;;;;;;;3.08;2.72;;;;;;;;;;4172858;34;20571;-70
2021/09/18 13:56:18;;;;;;;3.50;2.72;;;;;;;;;;4172664;34;20131;-70
2021/09/18 13:58:46;;;;;;;7.47;4.55;;;;;;;;;;4151509;34;20444;-70
2021/09/18 14:01:13;;;;;;;4.65;4.00;;;;;;;;;;4142731;34;20111;-70
2021/09/18 14:03:38;;;;;;;4.72;4.22;;;;;;;;;;4172722;34;20552;-70
2021/09/18 14:06:05;;;;;;;5.70;4.32;;;;;;;;;;4151393;34;20115;-71
2021/09/18 14:08:31;;;;;;;6.35;4.70;;;;;;;;;;4151333;34;20188;-71
2021/09/18 14:10:57;;;;;;;4.50;3.85;;;;;;;;;;4151345;34;20442;-70
2021/09/18 14:13:23;;;;;;;5.12;3.67;;;;;;;;;;4171757;34;20755;-72
2021/09/18 14:15:49;;;;;;;5.45;4.40;;;;;;;;;;4172410;34;20138;-70
2021/09/18 14:18:15;;;;;;;5.78;4.68;;;;;;;;;;4172447;34;20110;-71
2021/09/18 14:20:42;;;;;;;4.10;3.10;;;;;;;;;;4151364;34;20202;-69
2021/09/18 14:23:08;;;;;;;3.72;3.33;;;;;;;;;;4151349;34;20506;-71
2021/09/18 14:25:34;;;;;;;6.40;3.50;;;;;;;;;;4151351;34;20463;-70
2021/09/18 14:28:00;;;;;;;3.95;3.20;;;;;;;;;;4172746;34;20196;-73
2021/09/18 14:30:27;;;;;;;3.70;3.30;;;;;;;;;;4151311;34;20092;-73
2021/09/18 14:32:53;;;;;;;6.53;3.78;;;;;;;;;;4151250;34;20619;-72
2021/09/18 14:35:19;;;;;;;3.80;2.75;;;;;;;;;;4151167;34;20138;-67
2021/09/18 14:37:45;;;;;;;3.90;2.90;;;;;;;;;;4151210;34;20538;-69
2021/09/18 14:40:11;;;;;;;6.50;4.15;;;;;;;;;;4151275;34;20102;-67
2021/09/18 14:42:37;;;;;;;6.60;3.55;;;;;;;;;;4151324;34;20115;-67
2021/09/18 14:45:04;;;;;;;6.68;3.40;;;;;;;;;;4151011;34;20113;-69
2021/09/18 14:47:40;;;;;;;4.97;3.97;;;;;;;;;;4151496;34;20118;-67
2021/09/18 14:50:07;;;;;;;5.72;4.55;;;;;;;;;;4151267;34;20107;-71
2021/09/18 14:52:35;;;;;;;4.28;3.78;;;;;;;;;;4149258;34;20226;-65
2021/09/18 14:55:00;;;;;;;5.85;4.72;;;;;;;;;;4170319;34;20428;-67
2021/09/18 14:57:26;;;;;;;5.97;4.18;;;;;;;;;;4148946;34;20255;-67
2021/09/18 14:59:52;;;;;;;4.90;3.70;;;;;;;;;;4148347;34;20123;-66
2021/09/18 15:02:18;;;;;;;4.50;3.50;;;;;;;;;;4149226;34;20129;-66
2021/09/18 15:04:45;;;;;;;4.45;3.30;;;;;;;;;;4149527;34;20135;-70
2021/09/18 15:07:11;;;;;;;5.18;4.55;;;;;;;;;;4150472;34;20196;-67